createdAt,value
2022-10-02T00:02:11.162Z,98605.59
2022-10-02T00:04:45.128Z,98614.28
2022-10-02T00:07:13.209Z,98606.66
2022-10-02T00:09:49.727Z,98613.41
2022-10-02T00:12:20.240Z,98601.16
2022-10-02T00:14:51.077Z,98614.19
2022-10-02T00:17:24.091Z,98611.47
2022-10-02T00:19:57.234Z,98601.13
2022-10-02T00:22:41.460Z,98610.88
2022-10-02T00:25:28.822Z,98615.75
2022-10-02T00:28:29.005Z,98650.53
2022-10-02T00:31:07.877Z,98641.28
2022-10-02T00:34:10.811Z,98639.09
2022-10-02T00:37:02.720Z,98642.38
2022-10-02T00:39:50.936Z,98647.56
2022-10-02T00:42:29.882Z,98640.19
2022-10-02T00:45:32.160Z,98647.25
2022-10-02T00:48:18.135Z,98641.28
2022-10-02T00:50:44.933Z,98656.75
2022-10-02T00:53:21.778Z,98654.03
2022-10-02T00:56:26.152Z,98662.19
2022-10-02T00:59:30.150Z,98664.31
2022-10-02T01:02:31.701Z,98663.50
2022-10-02T01:05:02.814Z,98674.63
2022-10-02T01:07:29.957Z,98676.53
2022-10-02T01:09:57.013Z,98673.22
2022-10-02T01:12:24.414Z,98675.37
2022-10-02T01:14:51.218Z,98683.78
2022-10-02T01:17:34.853Z,98674.25
2022-10-02T01:20:05.814Z,98678.88
2022-10-02T01:22:52.460Z,98688.41
2022-10-02T01:25:19.566Z,98681.34
2022-10-02T01:27:46.741Z,98675.59
2022-10-02T01:30:18.657Z,98672.31
2022-10-02T01:32:52.407Z,98694.00
2022-10-02T01:35:22.228Z,98678.19
2022-10-02T01:37:51.306Z,98690.72
2022-10-02T01:40:31.479Z,98682.22
2022-10-02T01:43:05.489Z,98708.03
2022-10-02T01:45:45.373Z,98719.16
2022-10-02T01:48:51.327Z,98731.09
2022-10-02T01:51:47.798Z,98728.31
2022-10-02T01:54:57.933Z,98738.38
2022-10-02T01:57:56.739Z,98733.69
2022-10-02T02:00:26.304Z,98737.75
2022-10-02T02:03:43.495Z,98732.22
2022-10-02T02:06:22.495Z,98729.75
2022-10-02T02:09:01.688Z,98736.19
2022-10-02T02:11:29.930Z,98738.09
2022-10-02T02:14:17.460Z,98733.94
2022-10-02T02:16:50.058Z,98727.69
2022-10-02T02:19:31.222Z,98729.47
2022-10-02T02:22:02.044Z,98739.53
2022-10-02T02:24:41.765Z,98749.00
2022-10-02T02:27:15.113Z,98758.72
2022-10-02T02:29:44.797Z,98764.66
2022-10-02T02:32:18.728Z,98748.84
2022-10-02T02:34:51.068Z,98758.66
2022-10-02T02:37:21.601Z,98753.16
2022-10-02T02:40:00.058Z,98755.28
2022-10-02T02:42:31.344Z,98760.16
2022-10-02T02:45:04.639Z,98747.03
2022-10-02T02:47:58.998Z,98749.19
2022-10-02T02:50:46.414Z,98762.44
2022-10-02T02:53:18.281Z,98762.44
2022-10-02T02:55:58.565Z,98761.28
2022-10-02T02:58:25.334Z,98764.25
2022-10-02T03:00:52.297Z,98764.59
2022-10-02T03:03:19.457Z,98763.69
2022-10-02T03:05:57.098Z,98763.94
2022-10-02T03:08:34.469Z,98757.38
2022-10-02T03:11:11.383Z,98762.78
2022-10-02T03:13:55.791Z,98764.34
2022-10-02T03:17:09.205Z,98774.84
2022-10-02T03:19:54.420Z,98777.00
2022-10-02T03:22:36.442Z,98789.50
2022-10-02T03:25:15.672Z,98781.03
2022-10-02T03:27:56.484Z,98792.38
2022-10-02T03:30:24.598Z,98777.41
2022-10-02T03:32:53.767Z,98783.84
2022-10-02T03:35:23.754Z,98789.25
2022-10-02T03:37:53.965Z,98784.06
2022-10-02T03:40:25.078Z,98797.88
2022-10-02T03:42:53.836Z,98791.41
2022-10-02T03:45:39.335Z,98801.88
2022-10-02T03:48:07.422Z,98816.50
2022-10-02T03:50:36.329Z,98811.59
2022-10-02T03:53:14.563Z,98816.66
2022-10-02T03:55:46.581Z,98819.53
2022-10-02T03:58:18.439Z,98814.69
2022-10-02T04:01:00.259Z,98829.00
2022-10-02T04:03:59.689Z,98846.06
2022-10-02T04:06:58.658Z,98842.19
2022-10-02T04:09:31.798Z,98848.63
2022-10-02T04:12:10.826Z,98852.66
2022-10-02T04:14:58.300Z,98849.38
2022-10-02T04:17:55.732Z,98846.81
2022-10-02T04:20:43.953Z,98854.34
2022-10-02T04:23:26.794Z,98844.50
2022-10-02T04:26:00.937Z,98847.69
2022-10-02T04:28:38.488Z,98836.47
2022-10-02T04:31:13.135Z,98839.66
2022-10-02T04:33:40.876Z,98843.44
2022-10-02T04:36:25.566Z,98844.75
2022-10-02T04:39:35.725Z,98850.16
2022-10-02T04:42:23.092Z,98865.03
2022-10-02T04:45:29.516Z,98862.06
2022-10-02T04:48:15.174Z,98860.41
2022-10-02T04:51:17.787Z,98866.56
2022-10-02T04:53:58.366Z,98877.06
2022-10-02T04:56:43.843Z,98881.66
2022-10-02T04:59:21.243Z,98882.25
2022-10-02T05:02:12.451Z,98888.25
2022-10-02T05:05:16.942Z,98892.50
2022-10-02T05:08:14.125Z,98894.63
2022-10-02T05:10:52.839Z,98897.78
2022-10-02T05:13:22.575Z,98899.31
2022-10-02T05:16:14.268Z,98895.53
2022-10-02T05:19:22.547Z,98898.97
2022-10-02T05:22:08.599Z,98898.97
2022-10-02T05:24:44.267Z,98904.97
2022-10-02T05:27:37.910Z,98911.22
2022-10-02T05:30:16.169Z,98909.81
2022-10-02T05:33:12.470Z,98905.47
2022-10-02T05:35:51.139Z,98908.41
2022-10-02T05:38:29.915Z,98913.81
2022-10-02T05:40:56.676Z,98909.47
2022-10-02T05:43:42.423Z,98904.63
2022-10-02T05:46:23.161Z,98909.47
2022-10-02T05:49:18.719Z,98920.53
2022-10-02T05:51:57.508Z,98927.37
2022-10-02T05:54:24.198Z,98928.78
2022-10-02T05:56:59.639Z,98936.06
2022-10-02T05:59:38.175Z,98934.78
2022-10-02T06:02:28.358Z,98933.00
2022-10-02T06:05:06.058Z,98942.09
2022-10-02T06:07:33.776Z,98939.16
2022-10-02T06:10:18.166Z,98937.59
2022-10-02T06:13:02.368Z,98937.59
2022-10-02T06:15:52.537Z,98942.53
2022-10-02T06:18:23.947Z,98951.03
2022-10-02T06:20:58.787Z,98953.25
2022-10-02T06:23:30.022Z,98959.03
2022-10-02T06:26:04.875Z,98958.91
2022-10-02T06:28:48.844Z,98955.47
2022-10-02T06:31:36.208Z,98955.59
2022-10-02T06:34:03.109Z,98950.25
2022-10-02T06:36:57.893Z,98956.66
2022-10-02T06:39:45.564Z,98959.50
2022-10-02T06:42:28.739Z,98948.16
2022-10-02T06:45:40.201Z,98950.13
2022-10-02T06:48:57.839Z,98958.38
2022-10-02T06:51:54.180Z,98972.06
2022-10-02T06:54:40.580Z,98984.09
2022-10-02T06:57:12.824Z,98981.22
2022-10-02T06:59:57.024Z,98985.91
2022-10-02T07:02:26.514Z,98990.62
2022-10-02T07:05:09.267Z,98993.69
2022-10-02T07:07:57.922Z,98986.47
2022-10-02T07:11:01.066Z,98984.69
2022-10-02T07:13:46.835Z,98990.78
2022-10-02T07:16:39.201Z,98988.41
2022-10-02T07:19:40.898Z,98989.34
2022-10-02T07:22:45.022Z,98986.47
2022-10-02T07:25:48.748Z,98981.13
2022-10-02T07:28:25.021Z,98986.41
2022-10-02T07:31:07.069Z,98988.72
2022-10-02T07:33:48.993Z,98995.06
2022-10-02T07:36:50.748Z,98992.19
2022-10-02T07:39:39.246Z,98984.72
2022-10-02T07:42:33.549Z,98992.94
2022-10-02T07:45:18.364Z,98994.34
2022-10-02T07:48:00.026Z,99001.81
2022-10-02T07:50:36.714Z,99016.66
2022-10-02T07:53:25.616Z,99018.13
2022-10-02T07:55:54.863Z,99015.28
2022-10-02T07:58:50.151Z,99004.75
2022-10-02T08:01:21.099Z,99010.00
2022-10-02T08:03:58.261Z,99004.41
2022-10-02T08:06:25.782Z,99013.75
2022-10-02T08:08:59.069Z,99013.03
2022-10-02T08:11:32.402Z,99024.56
2022-10-02T08:14:11.628Z,99039.28
2022-10-02T08:16:47.809Z,99035.25
2022-10-02T08:19:24.379Z,99021.41
2022-10-02T08:22:00.744Z,99014.62
2022-10-02T08:24:41.365Z,99017.34
2022-10-02T08:27:38.538Z,99007.63
2022-10-02T08:30:06.876Z,99005.47
2022-10-02T08:32:36.714Z,98996.88
2022-10-02T08:35:17.198Z,98997.50
2022-10-02T08:38:01.006Z,98990.81
2022-10-02T08:40:46.984Z,98986.22
2022-10-02T08:44:05.860Z,98989.31
2022-10-02T08:46:57.037Z,98987.47
2022-10-02T08:49:57.709Z,98994.13
2022-10-02T08:52:58.695Z,98983.03
2022-10-02T08:55:48.600Z,98989.34
2022-10-02T08:58:40.302Z,98979.91
2022-10-02T09:01:15.878Z,98973.94
2022-10-02T09:04:13.527Z,98970.16
2022-10-02T09:07:02.218Z,98981.44
2022-10-02T09:09:46.982Z,98977.19
2022-10-02T09:12:25.810Z,98978.00
2022-10-02T09:14:59.199Z,98975.31
2022-10-02T09:17:36.513Z,98978.97
2022-10-02T09:20:25.231Z,98977.94
2022-10-02T09:23:22.706Z,98980.37
2022-10-02T09:26:00.326Z,98972.25
2022-10-02T09:28:52.090Z,98976.72
2022-10-02T09:31:46.751Z,98982.19
2022-10-02T09:34:35.195Z,98980.03
2022-10-02T09:37:29.754Z,98977.63
2022-10-02T09:40:11.853Z,98973.88
2022-10-02T09:43:06.500Z,98979.37
2022-10-02T09:45:52.025Z,98990.84
2022-10-02T09:48:43.185Z,98977.22
2022-10-02T09:51:54.827Z,98969.88
2022-10-02T09:54:44.409Z,98979.50
2022-10-02T09:57:48.689Z,98976.25
2022-10-02T10:00:52.048Z,98979.34
2022-10-02T10:03:52.675Z,98978.53
2022-10-02T10:06:25.717Z,98976.38
2022-10-02T10:08:55.062Z,98972.00
2022-10-02T10:11:29.304Z,98970.16
2022-10-02T10:14:12.778Z,98965.78
2022-10-02T10:17:13.496Z,98978.09
2022-10-02T10:20:17.540Z,98974.00
2022-10-02T10:23:15.547Z,98977.59
2022-10-02T10:25:58.375Z,98983.88
2022-10-02T10:29:04.779Z,98982.78
2022-10-02T10:31:48.491Z,98980.88
2022-10-02T10:35:06.091Z,98975.97
2022-10-02T10:38:33.300Z,98968.84
2022-10-02T10:41:09.502Z,98975.41
2022-10-02T10:44:04.453Z,98966.72
2022-10-02T10:47:00.789Z,98960.97
2022-10-02T10:49:57.655Z,98966.97
2022-10-02T10:52:30.498Z,98958.78
2022-10-02T10:55:11.046Z,98958.22
2022-10-02T10:57:43.841Z,98952.22
2022-10-02T11:00:25.939Z,98957.41
2022-10-02T11:03:06.540Z,98950.84
2022-10-02T11:05:58.178Z,98944.00
2022-10-02T11:09:06.136Z,98945.38
2022-10-02T11:11:38.884Z,98941.00
2022-10-02T11:14:24.263Z,98931.97
2022-10-02T11:17:28.375Z,98926.78
2022-10-02T11:20:46.099Z,98925.41
2022-10-02T11:23:37.479Z,98927.88
2022-10-02T11:26:06.818Z,98922.97
2022-10-02T11:28:45.318Z,98912.84
2022-10-02T11:31:56.433Z,98919.69
2022-10-02T11:35:10.367Z,98921.03
2022-10-02T11:38:06.754Z,98913.94
2022-10-02T11:40:57.877Z,98910.63
2022-10-02T11:43:39.449Z,98906.31
2022-10-02T11:46:15.676Z,98908.50
2022-10-02T11:49:00.205Z,98896.44
2022-10-02T11:52:00.759Z,98904.91
2022-10-02T11:54:45.037Z,98898.63
2022-10-02T11:57:29.803Z,98896.97
2022-10-02T12:00:32.374Z,98887.13
2022-10-02T12:03:12.804Z,98889.59
2022-10-02T12:05:55.883Z,98886.03
2022-10-02T12:08:34.530Z,98893.69
2022-10-02T12:11:34.663Z,98895.31
2022-10-02T12:14:16.798Z,98895.31
2022-10-02T12:16:57.129Z,98890.38
2022-10-02T12:20:07.709Z,98889.56
2022-10-02T12:23:15.660Z,98887.38
2022-10-02T12:26:44.054Z,98880.81
2022-10-02T12:29:41.119Z,98886.56
2022-10-02T12:32:16.837Z,98893.66
2022-10-02T12:35:01.798Z,98895.31
2022-10-02T12:37:38.704Z,98889.81
2022-10-02T12:40:37.499Z,98876.97
2022-10-02T12:43:23.863Z,98862.47
2022-10-02T12:45:54.818Z,98857.81
2022-10-02T12:48:46.513Z,98861.09
2022-10-02T12:51:35.631Z,98858.09
2022-10-02T12:54:18.122Z,98855.09
2022-10-02T12:57:51.763Z,98864.41
2022-10-02T13:00:21.761Z,98862.75
2022-10-02T13:03:20.237Z,98848.78
2022-10-02T13:05:53.912Z,98840.88
2022-10-02T13:08:41.501Z,98843.59
2022-10-02T13:11:55.729Z,98834.53
2022-10-02T13:14:48.084Z,98838.38
2022-10-02T13:17:47.161Z,98824.69
2022-10-02T13:20:32.351Z,98826.63
2022-10-02T13:23:16.497Z,98840.00
2022-10-02T13:25:49.214Z,98827.44
2022-10-02T13:28:30.530Z,98834.81
2022-10-02T13:31:11.454Z,98842.75
2022-10-02T13:33:56.779Z,98831.00
2022-10-02T13:36:57.830Z,98827.44
2022-10-02T13:39:40.843Z,98830.16
2022-10-02T13:42:29.290Z,98836.47
2022-10-02T13:45:45.743Z,98846.59
2022-10-02T13:48:32.096Z,98850.97
2022-10-02T13:51:07.752Z,98841.94
2022-10-02T13:53:40.280Z,98834.53
2022-10-02T13:56:48.980Z,98832.09
2022-10-02T13:59:48.444Z,98820.31
2022-10-02T14:02:37.883Z,98832.91
2022-10-02T14:05:18.975Z,98827.72
2022-10-02T14:08:07.180Z,98824.97
2022-10-02T14:10:47.699Z,98810.47
2022-10-02T14:13:29.784Z,98796.53
2022-10-02T14:16:25.686Z,98789.94
2022-10-02T14:19:23.713Z,98781.47
2022-10-02T14:22:03.126Z,98779.56
2022-10-02T14:25:03.810Z,98773.81
2022-10-02T14:27:55.429Z,98760.13
2022-10-02T14:30:23.683Z,98751.63
2022-10-02T14:33:02.533Z,98754.38
2022-10-02T14:35:41.560Z,98752.44
2022-10-02T14:38:23.540Z,98754.09
2022-10-02T14:40:53.882Z,98758.75
2022-10-02T14:43:56.233Z,98762.28
2022-10-02T14:47:00.706Z,98741.50
2022-10-02T14:49:36.533Z,98733.31
2022-10-02T14:52:25.331Z,98735.50
2022-10-02T14:55:10.824Z,98714.44
2022-10-02T14:57:37.751Z,98702.94
2022-10-02T15:00:07.278Z,98701.03
2022-10-02T15:02:55.974Z,98703.75
2022-10-02T15:05:37.701Z,98701.03
2022-10-02T15:08:31.120Z,98698.56
2022-10-02T15:10:59.470Z,98710.88
2022-10-02T15:14:03.428Z,98705.13
2022-10-02T15:17:13.338Z,98708.13
2022-10-02T15:19:50.007Z,98714.44
2022-10-02T15:22:25.758Z,98711.97
2022-10-02T15:24:59.502Z,98712.78
2022-10-02T15:27:44.696Z,98714.16
2022-10-02T15:30:23.171Z,98714.72
2022-10-02T15:32:55.924Z,98708.44
2022-10-02T15:35:41.219Z,98704.06
2022-10-02T15:38:35.732Z,98698.56
2022-10-02T15:41:40.651Z,98689.56
2022-10-02T15:44:35.519Z,98697.75
2022-10-02T15:47:11.157Z,98686.28
2022-10-02T15:50:04.044Z,98706.25
2022-10-02T15:52:43.037Z,98721.03
2022-10-02T15:55:20.186Z,98741.00
2022-10-02T15:58:13.124Z,98747.56
2022-10-02T16:01:15.248Z,98764.00
2022-10-02T16:03:45.475Z,98770.56
2022-10-02T16:06:21.731Z,98776.31
2022-10-02T16:09:02.516Z,98773.59
2022-10-02T16:11:38.557Z,98788.38
2022-10-02T16:14:39.607Z,98793.28
2022-10-02T16:17:34.350Z,98789.75
2022-10-02T16:20:31.897Z,98795.22
2022-10-02T16:23:18.939Z,98808.62
2022-10-02T16:26:08.916Z,98801.78
2022-10-02T16:28:42.118Z,98780.19
2022-10-02T16:31:27.560Z,98787.56
2022-10-02T16:34:15.843Z,98793.88
2022-10-02T16:36:57.475Z,98786.22
2022-10-02T16:39:33.806Z,98785.09
2022-10-02T16:42:27.167Z,98761.59
2022-10-02T16:45:06.454Z,98781.56
2022-10-02T16:47:43.446Z,98780.16
2022-10-02T16:50:17.263Z,98774.69
2022-10-02T16:53:17.981Z,98759.94
2022-10-02T16:55:56.257Z,98761.88
2022-10-02T16:58:40.325Z,98756.13
2022-10-02T17:01:24.029Z,98765.13
2022-10-02T17:04:28.697Z,98772.81
2022-10-02T17:07:27.733Z,98776.94
2022-10-02T17:10:19.129Z,98782.16
2022-10-02T17:13:07.530Z,98779.41
2022-10-02T17:16:03.141Z,98778.59
2022-10-02T17:18:58.928Z,98788.41
2022-10-02T17:21:39.725Z,98790.34
2022-10-02T17:24:23.116Z,98782.41
2022-10-02T17:27:08.404Z,98781.87
2022-10-02T17:29:53.104Z,98779.13
2022-10-02T17:32:47.305Z,98776.69
2022-10-02T17:35:17.478Z,98775.06
2022-10-02T17:37:57.073Z,98772.59
2022-10-02T17:40:31.514Z,98755.66
2022-10-02T17:43:01.300Z,98755.12
2022-10-02T17:45:36.220Z,98753.47
2022-10-02T17:48:17.915Z,98759.22
2022-10-02T17:50:53.903Z,98762.22
2022-10-02T17:53:57.740Z,98746.66
2022-10-02T17:56:37.398Z,98733.53
2022-10-02T17:59:20.072Z,98732.47
2022-10-02T18:01:56.132Z,98719.63
2022-10-02T18:04:52.637Z,98700.19
2022-10-02T18:07:39.893Z,98689.81
2022-10-02T18:10:38.965Z,98705.97
2022-10-02T18:13:46.416Z,98714.44
2022-10-02T18:16:45.831Z,98722.09
2022-10-02T18:19:15.593Z,98725.09
2022-10-02T18:22:23.193Z,98724.03
2022-10-02T18:25:12.655Z,98728.94
2022-10-02T18:28:18.174Z,98726.78
2022-10-02T18:31:14.593Z,98726.47
2022-10-02T18:33:57.273Z,98742.06
2022-10-02T18:36:50.528Z,98743.16
2022-10-02T18:39:35.799Z,98763.63
2022-10-02T18:42:45.594Z,98753.53
2022-10-02T18:45:27.369Z,98756.53
2022-10-02T18:48:20.008Z,98751.34
2022-10-02T18:51:24.007Z,98761.72
2022-10-02T18:53:57.507Z,98753.81
2022-10-02T18:56:45.964Z,98748.91
2022-10-02T18:59:27.383Z,98745.63
2022-10-02T19:02:17.473Z,98746.72
2022-10-02T19:05:12.338Z,98741.53
2022-10-02T19:07:48.588Z,98756.28
2022-10-02T19:10:28.948Z,98751.37
2022-10-02T19:13:17.530Z,98759.56
2022-10-02T19:15:47.969Z,98751.66
2022-10-02T19:18:22.832Z,98753.84
2022-10-02T19:20:58.606Z,98756.00
2022-10-02T19:23:30.857Z,98755.72
2022-10-02T19:26:03.324Z,98745.63
2022-10-02T19:28:33.454Z,98745.34
2022-10-02T19:31:08.179Z,98738.78
2022-10-02T19:33:43.606Z,98735.25
2022-10-02T19:36:18.689Z,98725.69
2022-10-02T19:38:52.370Z,98741.78
2022-10-02T19:41:20.397Z,98733.34
2022-10-02T19:43:56.597Z,98735.25
2022-10-02T19:46:38.282Z,98741.81
2022-10-02T19:49:06.221Z,98753.00
2022-10-02T19:51:45.050Z,98756.00
2022-10-02T19:54:20.425Z,98757.09
2022-10-02T19:57:15.888Z,98758.72
2022-10-02T19:59:52.295Z,98757.09
2022-10-02T20:02:27.119Z,98767.19
2022-10-02T20:04:59.677Z,98777.31
2022-10-02T20:07:30.387Z,98777.31
2022-10-02T20:10:02.015Z,98774.28
2022-10-02T20:12:38.517Z,98772.63
2022-10-02T20:15:14.493Z,98788.50
2022-10-02T20:17:41.750Z,98787.13
2022-10-02T20:20:16.757Z,98778.09
2022-10-02T20:22:49.395Z,98766.59
2022-10-02T20:25:28.754Z,98767.69
2022-10-02T20:28:14.609Z,98769.59
2022-10-02T20:30:50.519Z,98782.44
2022-10-02T20:33:31.414Z,98781.59
2022-10-02T20:36:06.876Z,98770.69
2022-10-02T20:38:37.500Z,98758.94
2022-10-02T20:41:15.759Z,98763.59
2022-10-02T20:43:55.112Z,98758.69
2022-10-02T20:46:33.950Z,98763.03
2022-10-02T20:49:40.301Z,98757.03
2022-10-02T20:52:22.371Z,98769.88
2022-10-02T20:55:00.918Z,98761.94
2022-10-02T20:57:59.747Z,98755.12
2022-10-02T21:00:28.955Z,98760.03
2022-10-02T21:03:13.936Z,98763.28
2022-10-02T21:06:26.601Z,98762.47
2022-10-02T21:09:14.692Z,98762.72
2022-10-02T21:11:56.630Z,98763.28
2022-10-02T21:14:54.610Z,98759.44
2022-10-02T21:17:50.735Z,98778.53
2022-10-02T21:20:46.098Z,98789.19
2022-10-02T21:23:37.821Z,98788.63
2022-10-02T21:26:27.445Z,98780.44
2022-10-02T21:29:00.147Z,98780.94
2022-10-02T21:31:36.473Z,98774.66
2022-10-02T21:34:36.910Z,98784.22
2022-10-02T21:37:35.124Z,98781.47
2022-10-02T21:40:33.448Z,98785.56
2022-10-02T21:43:44.720Z,98787.22
2022-10-02T21:46:14.399Z,98793.75
2022-10-02T21:49:14.175Z,98789.37
2022-10-02T21:51:59.236Z,98797.00
2022-10-02T21:54:35.015Z,98792.91
2022-10-02T21:57:26.882Z,98796.94
2022-10-02T22:00:13.583Z,98802.41
2022-10-02T22:03:14.334Z,98805.41
2022-10-02T22:06:06.755Z,98801.03
2022-10-02T22:08:43.727Z,98801.03
2022-10-02T22:11:27.241Z,98805.66
2022-10-02T22:14:02.768Z,98799.66
2022-10-02T22:16:43.985Z,98800.75
2022-10-02T22:19:26.087Z,98792.56
2022-10-02T22:22:24.000Z,98784.66
2022-10-02T22:25:26.153Z,98788.22
2022-10-02T22:28:05.142Z,98772.38
2022-10-02T22:30:56.218Z,98770.75
2022-10-02T22:33:55.152Z,98753.00
2022-10-02T22:37:00.354Z,98762.00
2022-10-02T22:39:43.614Z,98762.53
2022-10-02T22:42:18.495Z,98769.91
2022-10-02T22:44:52.817Z,98770.72
2022-10-02T22:47:25.669Z,98772.91
2022-10-02T22:49:59.848Z,98773.19
2022-10-02T22:52:47.412Z,98778.09
2022-10-02T22:55:24.185Z,98778.34
2022-10-02T22:58:02.639Z,98781.34
2022-10-02T23:00:36.626Z,98790.59
2022-10-02T23:03:10.728Z,98791.69
2022-10-02T23:05:52.178Z,98784.03
2022-10-02T23:08:49.224Z,98782.13
2022-10-02T23:11:18.716Z,98773.66
2022-10-02T23:13:50.296Z,98789.44
2022-10-02T23:16:27.018Z,98791.34
2022-10-02T23:19:09.091Z,98794.91
2022-10-02T23:22:11.326Z,98799.81
2022-10-02T23:24:47.409Z,98806.59
2022-10-02T23:27:21.013Z,98806.34
2022-10-02T23:30:03.185Z,98804.13
2022-10-02T23:33:14.578Z,98804.41
2022-10-02T23:35:56.097Z,98812.03
2022-10-02T23:38:31.516Z,98805.19
2022-10-02T23:41:47.226Z,98806.84
2022-10-02T23:44:26.871Z,98818.28
2022-10-02T23:46:59.433Z,98816.09
2022-10-02T23:49:52.488Z,98820.47
2022-10-02T23:52:44.294Z,98817.19
2022-10-02T23:55:35.195Z,98824.22
2022-10-02T23:58:36.064Z,98833.47
